createdAt,value
2023-04-27T00:00:27.176Z,99791.09
2023-04-27T00:03:30.520Z,99783.31
2023-04-27T00:06:34.622Z,99791.53
2023-04-27T00:09:37.650Z,99769.50
2023-04-27T00:12:42.621Z,99790.59
2023-04-27T00:15:45.806Z,99795.41
2023-04-27T00:18:48.989Z,99788.75
2023-04-27T00:21:52.087Z,99790.72
2023-04-27T00:24:54.731Z,99773.63
2023-04-27T00:27:57.677Z,99787.91
2023-04-27T00:31:03.203Z,99782.28
2023-04-27T00:34:06.277Z,99771.69
2023-04-27T00:37:08.944Z,99781.81
2023-04-27T00:40:12.294Z,99777.28
2023-04-27T00:43:14.978Z,99775.59
2023-04-27T00:46:19.846Z,99772.34
2023-04-27T00:49:23.908Z,99778.56
2023-04-27T00:52:26.854Z,99787.44
2023-04-27T00:55:29.530Z,99782.97
2023-04-27T00:58:33.046Z,99786.00
2023-04-27T01:01:35.994Z,99787.13
2023-04-27T01:04:39.115Z,99778.47
2023-04-27T01:07:41.983Z,99789.53
2023-04-27T01:10:45.071Z,99783.59
2023-04-27T01:13:48.025Z,99766.00
2023-04-27T01:16:52.190Z,99772.94
2023-04-27T01:19:56.786Z,99765.47
2023-04-27T01:23:00.188Z,99783.31
2023-04-27T01:26:02.868Z,99785.19
2023-04-27T01:29:06.223Z,99793.25
2023-04-27T01:32:08.899Z,99792.81
2023-04-27T01:35:12.311Z,99783.06
2023-04-27T01:38:15.093Z,99796.38
2023-04-27T01:41:19.761Z,99797.38
2023-04-27T01:44:24.051Z,99794.66
2023-04-27T01:47:27.818Z,99802.03
2023-04-27T01:50:30.657Z,99804.84
2023-04-27T01:53:34.332Z,99802.53
2023-04-27T01:56:37.002Z,99801.09
2023-04-27T01:59:40.214Z,99803.78
2023-04-27T02:02:42.952Z,99803.78
2023-04-27T02:05:47.186Z,99797.75
2023-04-27T02:08:49.852Z,99800.44
2023-04-27T02:11:52.860Z,99801.72
2023-04-27T02:14:55.930Z,99804.25
2023-04-27T02:17:59.772Z,99807.84
2023-04-27T02:21:07.861Z,99805.97
2023-04-27T02:24:12.376Z,99801.25
2023-04-27T02:27:15.082Z,99804.25
2023-04-27T02:30:18.533Z,99794.81
2023-04-27T02:33:21.684Z,99805.56
2023-04-27T02:36:24.717Z,99814.41
2023-04-27T02:39:27.383Z,99805.72
2023-04-27T02:42:30.509Z,99800.19
2023-04-27T02:45:37.147Z,99814.34
2023-04-27T02:48:41.390Z,99815.09
2023-04-27T02:51:44.010Z,99819.41
2023-04-27T02:54:47.170Z,99808.38
2023-04-27T02:57:49.900Z,99820.00
2023-04-27T03:00:56.647Z,99821.50
2023-04-27T03:03:59.630Z,99816.63
2023-04-27T03:07:05.662Z,99814.50
2023-04-27T03:10:08.718Z,99828.31
2023-04-27T03:13:11.708Z,99825.34
2023-04-27T03:16:14.705Z,99830.25
2023-04-27T03:19:18.881Z,99831.75
2023-04-27T03:22:21.690Z,99834.91
2023-04-27T03:25:24.730Z,99828.88
2023-04-27T03:28:27.397Z,99838.69
2023-04-27T03:31:32.555Z,99842.59
2023-04-27T03:34:35.486Z,99842.28
2023-04-27T03:37:38.414Z,99843.53
2023-04-27T03:40:41.410Z,99842.97
2023-04-27T03:43:44.358Z,99851.84
2023-04-27T03:46:46.952Z,99854.53
2023-04-27T03:49:50.010Z,99854.44
2023-04-27T03:52:52.770Z,99858.13
2023-04-27T03:55:55.895Z,99855.50
2023-04-27T03:58:58.737Z,99863.78
2023-04-27T04:02:04.046Z,99870.84
2023-04-27T04:05:07.678Z,99866.00
2023-04-27T04:08:10.499Z,99861.09
2023-04-27T04:11:13.612Z,99867.25
2023-04-27T04:14:16.426Z,99856.03
2023-04-27T04:17:19.382Z,99845.53
2023-04-27T04:20:22.504Z,99832.59
2023-04-27T04:23:25.968Z,99846.91
2023-04-27T04:26:28.757Z,99856.09
2023-04-27T04:29:32.853Z,99860.53
2023-04-27T04:32:37.955Z,99844.34
2023-04-27T04:35:42.027Z,99875.16
2023-04-27T04:38:44.804Z,99882.69
2023-04-27T04:41:49.415Z,99880.00
2023-04-27T04:44:53.236Z,99882.03
2023-04-27T04:47:56.379Z,99884.91
2023-04-27T04:50:59.739Z,99889.91
2023-04-27T04:54:03.279Z,99895.72
2023-04-27T04:57:05.923Z,99883.25
2023-04-27T05:00:13.760Z,99895.31
2023-04-27T05:03:16.777Z,99891.81
2023-04-27T05:06:19.952Z,99898.12
2023-04-27T05:09:22.839Z,99897.34
2023-04-27T05:12:25.974Z,99903.47
2023-04-27T05:15:28.631Z,99894.94
2023-04-27T05:18:32.233Z,99901.56
2023-04-27T05:21:34.968Z,99900.38
2023-04-27T05:24:38.632Z,99915.16
2023-04-27T05:27:41.290Z,99911.88
2023-04-27T05:30:44.241Z,99899.41
2023-04-27T05:33:47.288Z,99915.75
2023-04-27T05:36:50.495Z,99916.19
2023-04-27T05:39:53.489Z,99901.50
2023-04-27T05:42:56.688Z,99912.59
2023-04-27T05:45:59.467Z,99916.69
2023-04-27T05:49:02.942Z,99910.28
2023-04-27T05:52:05.971Z,99899.97
2023-04-27T05:55:09.119Z,99902.53
2023-04-27T05:58:11.749Z,99894.53
2023-04-27T06:01:14.718Z,99896.66
2023-04-27T06:04:18.118Z,99888.25
2023-04-27T06:07:21.463Z,99896.28
2023-04-27T06:10:24.496Z,99900.22
2023-04-27T06:13:27.101Z,99906.72
2023-04-27T06:16:30.255Z,99907.16
2023-04-27T06:19:33.249Z,99907.97
2023-04-27T06:22:39.760Z,99899.47
2023-04-27T06:25:42.336Z,99888.78
2023-04-27T06:28:45.542Z,99893.53
2023-04-27T06:31:48.383Z,99899.94
2023-04-27T06:34:51.552Z,99898.22
2023-04-27T06:37:58.750Z,99898.12
2023-04-27T06:41:03.090Z,99905.28
2023-04-27T06:44:05.846Z,99902.91
2023-04-27T06:47:08.976Z,99913.56
2023-04-27T06:50:11.828Z,99909.06
2023-04-27T06:53:14.924Z,99913.50
2023-04-27T06:56:17.510Z,99900.72
2023-04-27T06:59:21.577Z,99915.47
2023-04-27T07:02:25.613Z,99906.97
2023-04-27T07:05:28.760Z,99917.06
2023-04-27T07:08:31.429Z,99924.91
2023-04-27T07:11:34.380Z,99919.22
2023-04-27T07:14:37.043Z,99926.22
2023-04-27T07:17:40.080Z,99921.38
2023-04-27T07:20:42.820Z,99927.78
2023-04-27T07:23:46.612Z,99915.06
2023-04-27T07:26:49.357Z,99920.78
2023-04-27T07:29:52.606Z,99918.38
2023-04-27T07:32:55.257Z,99915.59
2023-04-27T07:35:58.994Z,99917.25
2023-04-27T07:39:02.368Z,99929.00
2023-04-27T07:42:05.646Z,99922.56
2023-04-27T07:45:11.170Z,99933.97
2023-04-27T07:48:14.109Z,99929.72
2023-04-27T07:51:17.639Z,99910.22
2023-04-27T07:54:20.767Z,99929.62
2023-04-27T07:57:23.450Z,99929.72
2023-04-27T08:00:26.907Z,99933.50
2023-04-27T08:03:30.082Z,99925.44
2023-04-27T08:06:34.187Z,99928.75
2023-04-27T08:09:37.999Z,99925.56
2023-04-27T08:12:40.738Z,99936.16
2023-04-27T08:15:43.665Z,99919.59
2023-04-27T08:18:46.360Z,99930.44
2023-04-27T08:21:49.312Z,99922.06
2023-04-27T08:24:52.020Z,99937.97
2023-04-27T08:27:55.040Z,99945.69
2023-04-27T08:30:57.678Z,99938.00
2023-04-27T08:34:00.663Z,99938.50
2023-04-27T08:37:04.483Z,99938.06
2023-04-27T08:40:09.980Z,99940.84
2023-04-27T08:43:12.704Z,99933.31
2023-04-27T08:46:22.765Z,99943.28
2023-04-27T08:49:25.534Z,99931.63
2023-04-27T08:52:29.020Z,99929.91
2023-04-27T08:55:31.631Z,99941.66
2023-04-27T08:58:38.467Z,99930.34
2023-04-27T09:01:49.125Z,99931.28
2023-04-27T09:04:52.594Z,99924.53
2023-04-27T09:08:08.131Z,99923.97
2023-04-27T09:11:11.499Z,99922.09
2023-04-27T09:14:22.543Z,99920.31
2023-04-27T09:17:30.422Z,99913.75
2023-04-27T09:20:33.197Z,99916.66
2023-04-27T09:23:44.590Z,99926.88
2023-04-27T09:26:50.071Z,99913.31
2023-04-27T09:29:53.092Z,99911.41
2023-04-27T09:33:01.199Z,99898.12
2023-04-27T09:36:06.437Z,99908.53
2023-04-27T09:39:09.334Z,99901.72
2023-04-27T09:42:13.270Z,99905.62
2023-04-27T09:45:17.159Z,99914.25
2023-04-27T09:48:22.206Z,99911.38
2023-04-27T09:51:24.931Z,99896.94
2023-04-27T09:54:32.382Z,99904.56
2023-04-27T09:57:41.159Z,99895.03
2023-04-27T10:01:07.295Z,99889.56
2023-04-27T10:04:13.440Z,99894.13
2023-04-27T10:07:17.364Z,99889.41
2023-04-27T10:10:20.771Z,99890.66
2023-04-27T10:13:25.236Z,99886.56
2023-04-27T10:16:39.463Z,99889.44
2023-04-27T10:19:57.328Z,99885.41
2023-04-27T10:23:01.241Z,99881.59
2023-04-27T10:26:08.024Z,99893.66
2023-04-27T10:29:12.547Z,99886.47
2023-04-27T10:32:26.136Z,99874.47
2023-04-27T10:35:38.071Z,99877.75
2023-04-27T10:38:41.996Z,99874.78
2023-04-27T10:41:56.400Z,99866.34
2023-04-27T10:44:59.463Z,99868.25
2023-04-27T10:48:02.781Z,99858.56
2023-04-27T10:51:06.514Z,99866.50
2023-04-27T10:54:09.651Z,99867.75
2023-04-27T10:57:13.569Z,99871.44
2023-04-27T11:00:26.814Z,99854.50
2023-04-27T11:03:29.588Z,99869.03
2023-04-27T11:06:36.617Z,99873.41
2023-04-27T11:09:42.450Z,99849.53
2023-04-27T11:12:46.324Z,99851.81
2023-04-27T11:15:54.965Z,99853.00
2023-04-27T11:19:05.162Z,99852.78
2023-04-27T11:22:07.864Z,99851.63
2023-04-27T11:25:11.260Z,99847.38
2023-04-27T11:28:20.529Z,99853.16
2023-04-27T11:31:23.918Z,99841.03
2023-04-27T11:34:26.764Z,99835.31
2023-04-27T11:37:29.826Z,99840.41
2023-04-27T11:40:34.559Z,99826.03
2023-04-27T11:43:43.182Z,99834.47
2023-04-27T11:46:47.558Z,99833.37
2023-04-27T11:49:52.810Z,99819.19
2023-04-27T11:52:56.071Z,99837.53
2023-04-27T11:56:05.513Z,99842.50
2023-04-27T11:59:23.060Z,99847.31
2023-04-27T12:02:28.169Z,99845.44
2023-04-27T12:05:31.812Z,99848.59
2023-04-27T12:08:34.842Z,99842.69
2023-04-27T12:11:37.852Z,99840.41
2023-04-27T12:14:40.747Z,99826.22
2023-04-27T12:17:43.889Z,99832.03
2023-04-27T12:20:47.173Z,99833.50
2023-04-27T12:23:50.138Z,99837.66
2023-04-27T12:26:52.801Z,99850.50
2023-04-27T12:29:55.754Z,99846.66
2023-04-27T12:33:00.884Z,99843.22
2023-04-27T12:36:03.923Z,99850.88
2023-04-27T12:39:26.839Z,99842.16
2023-04-27T12:42:30.241Z,99825.84
2023-04-27T12:45:33.022Z,99832.84
2023-04-27T12:48:36.329Z,99844.31
2023-04-27T12:51:39.176Z,99837.75
2023-04-27T12:54:42.314Z,99835.47
2023-04-27T12:57:44.965Z,99810.53
2023-04-27T13:00:47.892Z,99824.78
2023-04-27T13:03:55.934Z,99834.13
2023-04-27T13:07:03.389Z,99826.19
2023-04-27T13:10:06.577Z,99823.59
2023-04-27T13:13:09.634Z,99824.47
2023-04-27T13:16:12.983Z,99811.41
2023-04-27T13:19:16.169Z,99821.84
2023-04-27T13:22:20.942Z,99824.72
2023-04-27T13:25:23.902Z,99806.03
2023-04-27T13:28:26.611Z,99826.81
2023-04-27T13:31:29.601Z,99822.66
2023-04-27T13:34:32.289Z,99828.69
2023-04-27T13:37:35.356Z,99828.13
2023-04-27T13:40:38.118Z,99830.97
2023-04-27T13:43:41.083Z,99834.47
2023-04-27T13:46:43.773Z,99840.06
2023-04-27T13:49:46.928Z,99835.66
2023-04-27T13:52:49.917Z,99830.88
2023-04-27T13:55:54.755Z,99832.41
2023-04-27T13:58:57.454Z,99837.88
2023-04-27T14:02:00.863Z,99839.13
2023-04-27T14:05:05.539Z,99832.38
2023-04-27T14:08:08.211Z,99850.00
2023-04-27T14:11:14.331Z,99832.41
2023-04-27T14:14:17.098Z,99829.69
2023-04-27T14:17:20.077Z,99821.16
2023-04-27T14:20:22.914Z,99825.09
2023-04-27T14:23:26.016Z,99832.28
2023-04-27T14:26:28.786Z,99836.84
2023-04-27T14:29:31.803Z,99832.31
2023-04-27T14:32:34.634Z,99832.97
2023-04-27T14:35:37.691Z,99831.47
2023-04-27T14:38:40.846Z,99825.31
2023-04-27T14:41:43.976Z,99832.00
2023-04-27T14:44:48.119Z,99833.47
2023-04-27T14:47:52.871Z,99832.66
2023-04-27T14:50:55.745Z,99830.81
2023-04-27T14:53:59.238Z,99823.09
2023-04-27T14:57:02.109Z,99843.13
2023-04-27T15:00:10.053Z,99842.25
2023-04-27T15:03:12.970Z,99841.41
2023-04-27T15:06:16.197Z,99832.44
2023-04-27T15:09:19.688Z,99839.91
2023-04-27T15:12:22.866Z,99833.09
2023-04-27T15:15:25.646Z,99836.13
2023-04-27T15:18:28.611Z,99835.03
2023-04-27T15:21:32.346Z,99833.13
2023-04-27T15:24:35.431Z,99829.78
2023-04-27T15:27:38.203Z,99833.56
2023-04-27T15:30:41.808Z,99819.84
2023-04-27T15:33:44.516Z,99825.59
2023-04-27T15:36:47.623Z,99814.62
2023-04-27T15:39:50.493Z,99829.78
2023-04-27T15:42:53.574Z,99829.00
2023-04-27T15:45:56.290Z,99841.09
2023-04-27T15:48:59.467Z,99837.78
2023-04-27T15:52:04.069Z,99838.00
2023-04-27T15:55:08.602Z,99828.34
2023-04-27T15:58:11.417Z,99829.44
2023-04-27T16:01:14.476Z,99819.06
2023-04-27T16:04:17.795Z,99828.63
2023-04-27T16:07:20.650Z,99824.53
2023-04-27T16:10:24.255Z,99823.22
2023-04-27T16:13:28.611Z,99830.28
2023-04-27T16:16:32.293Z,99824.50
2023-04-27T16:19:35.022Z,99823.09
2023-04-27T16:22:38.487Z,99815.94
2023-04-27T16:25:41.528Z,99820.38
2023-04-27T16:28:44.423Z,99843.94
2023-04-27T16:31:50.283Z,99841.47
2023-04-27T16:34:53.256Z,99845.00
2023-04-27T16:37:55.968Z,99841.94
2023-04-27T16:40:58.980Z,99835.00
2023-04-27T16:44:01.812Z,99846.69
2023-04-27T16:47:05.785Z,99841.22
2023-04-27T16:50:08.863Z,99824.19
2023-04-27T16:53:19.630Z,99837.66
2023-04-27T16:56:35.185Z,99845.19
2023-04-27T16:59:38.285Z,99846.72
2023-04-27T17:02:43.728Z,99852.47
2023-04-27T17:05:47.291Z,99854.19
2023-04-27T17:08:49.939Z,99856.59
2023-04-27T17:11:53.059Z,99849.34
2023-04-27T17:14:55.781Z,99860.66
2023-04-27T17:18:02.146Z,99843.50
2023-04-27T17:21:05.501Z,99861.66
2023-04-27T17:24:09.923Z,99858.50
2023-04-27T17:27:12.720Z,99866.06
2023-04-27T17:30:16.033Z,99862.19
2023-04-27T17:33:19.010Z,99853.53
2023-04-27T17:36:21.943Z,99860.22
2023-04-27T17:39:25.317Z,99867.06
2023-04-27T17:42:28.921Z,99869.69
2023-04-27T17:45:32.194Z,99871.78
2023-04-27T17:48:36.512Z,99866.22
2023-04-27T17:51:39.573Z,99873.72
2023-04-27T17:54:43.340Z,99872.75
2023-04-27T17:57:46.412Z,99874.72
2023-04-27T18:00:49.420Z,99875.88
2023-04-27T18:03:52.482Z,99878.41
2023-04-27T18:06:56.127Z,99891.41
2023-04-27T18:10:00.191Z,99886.09
2023-04-27T18:13:03.519Z,99896.59
2023-04-27T18:16:06.605Z,99889.41
2023-04-27T18:19:10.339Z,99895.78
2023-04-27T18:22:13.402Z,99914.22
2023-04-27T18:25:16.069Z,99912.56
2023-04-27T18:28:19.011Z,99916.38
2023-04-27T18:31:23.856Z,99914.84
2023-04-27T18:34:27.115Z,99919.00
2023-04-27T18:37:29.943Z,99927.09
2023-04-27T18:40:35.395Z,99914.84
2023-04-27T18:43:38.059Z,99933.03
2023-04-27T18:46:41.209Z,99938.16
2023-04-27T18:49:43.899Z,99929.53
2023-04-27T18:52:47.090Z,99947.28
2023-04-27T18:55:49.835Z,99951.72
2023-04-27T18:58:53.358Z,99940.78
2023-04-27T19:01:56.180Z,99961.63
2023-04-27T19:05:11.178Z,99962.47
2023-04-27T19:08:14.586Z,99958.13
2023-04-27T19:11:22.096Z,99961.13
2023-04-27T19:14:24.995Z,99968.44
2023-04-27T19:17:28.291Z,99970.75
2023-04-27T19:20:31.106Z,99975.97
2023-04-27T19:23:34.064Z,99973.25
2023-04-27T19:26:36.968Z,99971.59
2023-04-27T19:29:55.369Z,99977.44
2023-04-27T19:32:58.098Z,99976.84
2023-04-27T19:36:01.150Z,99988.84
2023-04-27T19:39:03.785Z,99991.97
2023-04-27T19:42:06.835Z,100003.22
2023-04-27T19:45:09.977Z,100003.22
2023-04-27T19:48:12.937Z,99991.38
2023-04-27T19:51:15.845Z,99976.19
2023-04-27T19:54:18.933Z,100000.31
2023-04-27T19:57:22.200Z,100003.84
2023-04-27T20:00:25.208Z,100008.84
2023-04-27T20:03:28.547Z,100006.16
2023-04-27T20:06:33.309Z,100010.09
2023-04-27T20:09:36.295Z,100006.97
2023-04-27T20:12:54.494Z,100004.06
2023-04-27T20:15:59.210Z,100010.91
2023-04-27T20:19:02.014Z,100004.25
2023-04-27T20:22:04.972Z,100016.28
2023-04-27T20:25:08.397Z,100018.31
2023-04-27T20:28:11.475Z,100015.81
2023-04-27T20:31:14.260Z,100013.09
2023-04-27T20:34:23.823Z,100003.31
2023-04-27T20:37:26.615Z,100002.91
2023-04-27T20:40:29.638Z,100016.59
2023-04-27T20:43:32.639Z,100013.22
2023-04-27T20:46:36.511Z,100005.56
2023-04-27T20:49:39.208Z,100021.78
2023-04-27T20:52:42.153Z,100021.16
2023-04-27T20:55:46.165Z,100020.25
2023-04-27T20:58:49.185Z,100021.50
2023-04-27T21:01:51.928Z,100022.94
2023-04-27T21:04:54.986Z,100027.72
2023-04-27T21:07:57.796Z,100022.09
2023-04-27T21:11:00.878Z,100022.50
2023-04-27T21:14:03.682Z,100014.16
2023-04-27T21:17:06.750Z,100030.75
2023-04-27T21:20:10.423Z,100018.62
2023-04-27T21:23:14.862Z,100026.50
2023-04-27T21:26:17.630Z,100038.09
2023-04-27T21:29:21.093Z,100032.22
2023-04-27T21:32:24.321Z,100033.44
2023-04-27T21:35:27.353Z,100036.69
2023-04-27T21:38:30.321Z,100027.00
2023-04-27T21:41:35.214Z,100045.56
2023-04-27T21:44:38.260Z,100036.81
2023-04-27T21:47:41.423Z,100035.72
2023-04-27T21:50:44.396Z,100041.91
2023-04-27T21:53:47.669Z,100030.37
2023-04-27T21:56:50.494Z,100030.94
2023-04-27T21:59:53.556Z,100050.00
2023-04-27T22:02:56.844Z,100054.31
2023-04-27T22:05:59.863Z,100044.03
2023-04-27T22:09:02.661Z,100062.47
2023-04-27T22:12:05.950Z,100053.06
2023-04-27T22:15:09.274Z,100044.37
2023-04-27T22:18:12.291Z,100056.06
2023-04-27T22:21:15.031Z,100058.59
2023-04-27T22:24:18.381Z,100055.81
2023-04-27T22:27:21.122Z,100077.72
2023-04-27T22:30:24.283Z,100079.75
2023-04-27T22:33:27.098Z,100078.28
2023-04-27T22:36:30.276Z,100085.91
2023-04-27T22:39:33.011Z,100086.75
2023-04-27T22:42:35.982Z,100079.88
2023-04-27T22:45:39.064Z,100082.56
2023-04-27T22:48:43.629Z,100079.16
2023-04-27T22:51:47.296Z,100077.28
2023-04-27T22:54:51.288Z,100072.28
2023-04-27T22:57:53.996Z,100075.38
2023-04-27T23:00:57.141Z,100059.31
2023-04-27T23:03:59.998Z,100051.25
2023-04-27T23:07:03.862Z,100076.12
2023-04-27T23:10:07.622Z,100074.63
2023-04-27T23:13:11.461Z,100074.72
2023-04-27T23:16:14.932Z,100073.97
2023-04-27T23:19:18.288Z,100065.44
2023-04-27T23:22:21.302Z,100055.03
2023-04-27T23:25:24.750Z,100081.25
2023-04-27T23:28:27.524Z,100068.56
2023-04-27T23:31:30.679Z,100073.19
2023-04-27T23:34:33.848Z,100067.66
2023-04-27T23:37:36.870Z,100065.97
2023-04-27T23:40:40.062Z,100052.16
2023-04-27T23:43:44.733Z,100057.81
2023-04-27T23:46:47.433Z,100061.44
2023-04-27T23:49:50.500Z,100067.44
2023-04-27T23:52:53.226Z,100064.13
2023-04-27T23:55:57.156Z,100051.59
2023-04-27T23:58:59.780Z,100049.09
